Troodos, Cyprus
Current Conditions -  °F | °C
As of 9:50 AM on Friday 31 Oct 2014 (Local Time) from LCRA Reporting Station
Few Clouds Few Clouds  
Wind Chill: 72°   Ceiling: Unl
Heat Index: 72°   Visibility: 6mi
Dew Point: 57°   Wind: 7mph
Humidity: 60%   Direction: 280°W
Pressure: 29.88"   Gusts: NA
Location:  34.93°N, 32.87°E
Report Text: LCRA 310650Z 28006KT 9999 FEW030CB 22/14 Q1012 TEMPO 5000 TSRASCT030CB
Loading
Personal Weather Stations






























Interactive Weather Map
Tropical Storm Tracking
New forecast layout! Learn more

10-Day Weather Forecast

Advertisements
Track Severe Weather on mobile